sensor_id;sensor_type;location;lat;lon;timestamp;P1;durP1;ratioP1;P2;durP2;ratioP2
44197;SDS011;30157;55.512;37.764;2023-04-03T00:01:28;8.15;;;5.78;;
44197;SDS011;30157;55.512;37.764;2023-04-03T00:03:57;8.73;;;5.88;;
44197;SDS011;30157;55.512;37.764;2023-04-03T00:06:23;10.20;;;6.30;;
44197;SDS011;30157;55.512;37.764;2023-04-03T00:08:51;8.90;;;6.00;;
44197;SDS011;30157;55.512;37.764;2023-04-03T00:11:18;10.85;;;6.32;;
44197;SDS011;30157;55.512;37.764;2023-04-03T00:13:45;10.63;;;6.32;;
44197;SDS011;30157;55.512;37.764;2023-04-03T00:16:10;9.60;;;6.15;;
44197;SDS011;30157;55.512;37.764;2023-04-03T00:18:37;8.95;;;6.00;;
44197;SDS011;30157;55.512;37.764;2023-04-03T00:21:03;9.77;;;5.40;;
44197;SDS011;30157;55.512;37.764;2023-04-03T00:23:30;9.45;;;5.88;;
44197;SDS011;30157;55.512;37.764;2023-04-03T00:25:56;11.45;;;6.03;;
44197;SDS011;30157;55.512;37.764;2023-04-03T00:28:22;10.43;;;6.45;;
44197;SDS011;30157;55.512;37.764;2023-04-03T00:30:48;13.95;;;6.45;;
44197;SDS011;30157;55.512;37.764;2023-04-03T00:33:15;11.20;;;6.78;;
44197;SDS011;30157;55.512;37.764;2023-04-03T00:35:41;9.77;;;6.43;;
44197;SDS011;30157;55.512;37.764;2023-04-03T00:38:07;10.60;;;6.20;;
44197;SDS011;30157;55.512;37.764;2023-04-03T00:40:37;12.43;;;7.10;;
44197;SDS011;30157;55.512;37.764;2023-04-03T00:43:20;9.68;;;6.25;;
44197;SDS011;30157;55.512;37.764;2023-04-03T00:45:51;10.05;;;6.30;;
44197;SDS011;30157;55.512;37.764;2023-04-03T00:48:23;9.25;;;6.18;;
44197;SDS011;30157;55.512;37.764;2023-04-03T00:50:56;11.70;;;6.38;;
44197;SDS011;30157;55.512;37.764;2023-04-03T00:53:46;9.98;;;6.50;;
44197;SDS011;30157;55.512;37.764;2023-04-03T00:56:18;10.93;;;6.32;;
44197;SDS011;30157;55.512;37.764;2023-04-03T00:58:49;11.35;;;6.72;;
44197;SDS011;30157;55.512;37.764;2023-04-03T01:01:21;9.55;;;6.18;;
44197;SDS011;30157;55.512;37.764;2023-04-03T01:03:49;10.32;;;6.40;;
44197;SDS011;30157;55.512;37.764;2023-04-03T01:06:17;9.63;;;6.20;;
44197;SDS011;30157;55.512;37.764;2023-04-03T01:08:47;12.63;;;6.20;;
44197;SDS011;30157;55.512;37.764;2023-04-03T01:11:15;9.40;;;5.95;;
44197;SDS011;30157;55.512;37.764;2023-04-03T01:13:41;9.88;;;6.13;;
44197;SDS011;30157;55.512;37.764;2023-04-03T01:16:07;8.50;;;5.88;;
44197;SDS011;30157;55.512;37.764;2023-04-03T01:18:34;9.98;;;5.80;;
44197;SDS011;30157;55.512;37.764;2023-04-03T01:26:42;10.85;;;6.20;;
44197;SDS011;30157;55.512;37.764;2023-04-03T01:29:08;8.55;;;5.65;;
44197;SDS011;30157;55.512;37.764;2023-04-03T01:34:01;9.65;;;6.30;;
44197;SDS011;30157;55.512;37.764;2023-04-03T01:36:30;10.38;;;6.28;;
44197;SDS011;30157;55.512;37.764;2023-04-03T01:38:58;11.02;;;6.18;;
44197;SDS011;30157;55.512;37.764;2023-04-03T01:41:25;9.18;;;6.28;;
44197;SDS011;30157;55.512;37.764;2023-04-03T01:43:56;9.05;;;5.75;;
44197;SDS011;30157;55.512;37.764;2023-04-03T01:46:22;10.68;;;6.10;;
44197;SDS011;30157;55.512;37.764;2023-04-03T01:48:48;12.75;;;6.15;;
44197;SDS011;30157;55.512;37.764;2023-04-03T01:51:14;10.25;;;6.00;;
44197;SDS011;30157;55.512;37.764;2023-04-03T01:53:40;9.90;;;5.80;;
44197;SDS011;30157;55.512;37.764;2023-04-03T01:56:06;10.43;;;6.18;;
44197;SDS011;30157;55.512;37.764;2023-04-03T01:58:32;12.63;;;6.82;;
44197;SDS011;30157;55.512;37.764;2023-04-03T02:00:59;12.95;;;7.25;;
44197;SDS011;30157;55.512;37.764;2023-04-03T02:03:25;11.85;;;6.57;;
44197;SDS011;30157;55.512;37.764;2023-04-03T02:05:51;10.25;;;6.43;;
44197;SDS011;30157;55.512;37.764;2023-04-03T02:08:17;10.75;;;6.28;;
44197;SDS011;30157;55.512;37.764;2023-04-03T02:10:49;11.25;;;6.75;;
44197;SDS011;30157;55.512;37.764;2023-04-03T02:13:16;13.02;;;6.65;;
44197;SDS011;30157;55.512;37.764;2023-04-03T02:15:44;10.60;;;6.07;;
44197;SDS011;30157;55.512;37.764;2023-04-03T02:18:11;11.00;;;6.57;;
44197;SDS011;30157;55.512;37.764;2023-04-03T02:20:37;11.65;;;6.80;;
44197;SDS011;30157;55.512;37.764;2023-04-03T02:23:04;10.98;;;6.85;;
44197;SDS011;30157;55.512;37.764;2023-04-03T02:25:31;11.38;;;7.47;;
44197;SDS011;30157;55.512;37.764;2023-04-03T02:27:57;10.45;;;6.97;;
44197;SDS011;30157;55.512;37.764;2023-04-03T02:30:23;11.38;;;7.10;;
44197;SDS011;30157;55.512;37.764;2023-04-03T02:32:48;12.25;;;6.90;;
44197;SDS011;30157;55.512;37.764;2023-04-03T02:35:14;11.93;;;6.82;;
44197;SDS011;30157;55.512;37.764;2023-04-03T02:37:41;10.30;;;7.05;;
44197;SDS011;30157;55.512;37.764;2023-04-03T02:40:07;12.57;;;7.05;;
44197;SDS011;30157;55.512;37.764;2023-04-03T02:42:34;10.60;;;6.68;;
44197;SDS011;30157;55.512;37.764;2023-04-03T02:45:02;12.20;;;6.70;;
44197;SDS011;30157;55.512;37.764;2023-04-03T02:47:28;11.65;;;7.28;;
44197;SDS011;30157;55.512;37.764;2023-04-03T02:49:54;11.77;;;6.93;;
44197;SDS011;30157;55.512;37.764;2023-04-03T02:52:20;12.15;;;7.88;;
44197;SDS011;30157;55.512;37.764;2023-04-03T02:54:47;13.23;;;6.97;;
44197;SDS011;30157;55.512;37.764;2023-04-03T02:57:12;11.32;;;6.72;;
44197;SDS011;30157;55.512;37.764;2023-04-03T02:59:38;11.90;;;7.10;;
44197;SDS011;30157;55.512;37.764;2023-04-03T03:02:08;11.10;;;6.70;;
44197;SDS011;30157;55.512;37.764;2023-04-03T03:04:36;10.75;;;6.72;;
44197;SDS011;30157;55.512;37.764;2023-04-03T03:07:04;12.18;;;7.07;;
44197;SDS011;30157;55.512;37.764;2023-04-03T03:09:31;12.48;;;7.05;;
44197;SDS011;30157;55.512;37.764;2023-04-03T03:11:57;10.25;;;6.43;;
44197;SDS011;30157;55.512;37.764;2023-04-03T03:14:23;10.30;;;6.75;;
44197;SDS011;30157;55.512;37.764;2023-04-03T03:16:49;11.18;;;6.95;;
44197;SDS011;30157;55.512;37.764;2023-04-03T03:19:14;12.48;;;7.22;;
44197;SDS011;30157;55.512;37.764;2023-04-03T03:21:40;10.27;;;6.63;;
44197;SDS011;30157;55.512;37.764;2023-04-03T03:24:06;11.38;;;7.55;;
44197;SDS011;30157;55.512;37.764;2023-04-03T03:26:32;12.40;;;7.25;;
44197;SDS011;30157;55.512;37.764;2023-04-03T03:28:58;11.05;;;7.40;;
44197;SDS011;30157;55.512;37.764;2023-04-03T03:31:25;11.55;;;7.25;;
44197;SDS011;30157;55.512;37.764;2023-04-03T03:33:51;9.63;;;6.88;;
44197;SDS011;30157;55.512;37.764;2023-04-03T03:36:16;10.25;;;6.68;;
44197;SDS011;30157;55.512;37.764;2023-04-03T03:38:42;12.07;;;6.75;;
44197;SDS011;30157;55.512;37.764;2023-04-03T03:41:08;11.95;;;6.45;;
44197;SDS011;30157;55.512;37.764;2023-04-03T03:43:34;12.23;;;6.90;;
44197;SDS011;30157;55.512;37.764;2023-04-03T03:46:02;12.43;;;7.53;;
44197;SDS011;30157;55.512;37.764;2023-04-03T03:48:28;10.80;;;7.07;;
44197;SDS011;30157;55.512;37.764;2023-04-03T03:50:55;9.60;;;6.20;;
44197;SDS011;30157;55.512;37.764;2023-04-03T03:53:24;11.65;;;7.05;;
44197;SDS011;30157;55.512;37.764;2023-04-03T03:55:53;12.40;;;7.07;;
44197;SDS011;30157;55.512;37.764;2023-04-03T03:58:21;12.05;;;7.25;;
44197;SDS011;30157;55.512;37.764;2023-04-03T04:00:47;9.70;;;7.05;;
44197;SDS011;30157;55.512;37.764;2023-04-03T04:03:13;11.38;;;6.93;;
44197;SDS011;30157;55.512;37.764;2023-04-03T04:05:40;11.25;;;7.03;;
44197;SDS011;30157;55.512;37.764;2023-04-03T04:08:05;12.82;;;7.45;;
44197;SDS011;30157;55.512;37.764;2023-04-03T04:10:32;12.43;;;7.47;;
44197;SDS011;30157;55.512;37.764;2023-04-03T04:12:59;11.75;;;7.00;;
44197;SDS011;30157;55.512;37.764;2023-04-03T04:15:27;11.40;;;7.03;;
44197;SDS011;30157;55.512;37.764;2023-04-03T04:17:54;10.02;;;6.38;;
44197;SDS011;30157;55.512;37.764;2023-04-03T04:20:20;12.13;;;7.40;;
44197;SDS011;30157;55.512;37.764;2023-04-03T04:22:47;11.48;;;7.22;;
44197;SDS011;30157;55.512;37.764;2023-04-03T04:25:13;10.43;;;6.60;;
44197;SDS011;30157;55.512;37.764;2023-04-03T04:27:39;8.70;;;5.82;;
44197;SDS011;30157;55.512;37.764;2023-04-03T04:30:05;9.13;;;6.35;;
44197;SDS011;30157;55.512;37.764;2023-04-03T04:32:32;11.07;;;6.72;;
44197;SDS011;30157;55.512;37.764;2023-04-03T04:34:58;9.35;;;6.55;;
44197;SDS011;30157;55.512;37.764;2023-04-03T04:37:25;10.90;;;6.63;;
44197;SDS011;30157;55.512;37.764;2023-04-03T04:39:52;11.30;;;6.30;;
44197;SDS011;30157;55.512;37.764;2023-04-03T04:42:18;9.02;;;6.03;;
44197;SDS011;30157;55.512;37.764;2023-04-03T04:44:46;10.68;;;6.32;;
44197;SDS011;30157;55.512;37.764;2023-04-03T04:47:13;8.40;;;5.63;;
44197;SDS011;30157;55.512;37.764;2023-04-03T04:49:42;10.55;;;5.85;;
44197;SDS011;30157;55.512;37.764;2023-04-03T04:52:12;10.43;;;5.88;;
44197;SDS011;30157;55.512;37.764;2023-04-03T04:54:39;10.20;;;5.82;;
44197;SDS011;30157;55.512;37.764;2023-04-03T04:57:05;10.23;;;6.28;;
44197;SDS011;30157;55.512;37.764;2023-04-03T04:59:31;9.35;;;6.20;;
44197;SDS011;30157;55.512;37.764;2023-04-03T05:01:57;9.75;;;6.03;;
44197;SDS011;30157;55.512;37.764;2023-04-03T05:04:24;11.57;;;6.38;;
44197;SDS011;30157;55.512;37.764;2023-04-03T05:06:55;9.75;;;5.88;;
44197;SDS011;30157;55.512;37.764;2023-04-03T05:09:24;9.05;;;5.85;;
44197;SDS011;30157;55.512;37.764;2023-04-03T05:11:51;13.93;;;5.65;;
44197;SDS011;30157;55.512;37.764;2023-04-03T05:14:20;8.13;;;5.75;;
44197;SDS011;30157;55.512;37.764;2023-04-03T05:16:46;8.77;;;5.68;;
44197;SDS011;30157;55.512;37.764;2023-04-03T05:19:13;7.95;;;5.25;;
44197;SDS011;30157;55.512;37.764;2023-04-03T05:21:40;8.63;;;5.80;;
44197;SDS011;30157;55.512;37.764;2023-04-03T05:24:10;11.57;;;5.75;;
44197;SDS011;30157;55.512;37.764;2023-04-03T05:26:39;7.97;;;5.60;;
44197;SDS011;30157;55.512;37.764;2023-04-03T05:29:06;8.88;;;5.80;;
44197;SDS011;30157;55.512;37.764;2023-04-03T05:31:32;9.13;;;6.25;;
44197;SDS011;30157;55.512;37.764;2023-04-03T05:33:58;11.20;;;5.80;;
44197;SDS011;30157;55.512;37.764;2023-04-03T05:36:25;9.77;;;5.40;;
44197;SDS011;30157;55.512;37.764;2023-04-03T05:38:55;8.07;;;5.07;;
44197;SDS011;30157;55.512;37.764;2023-04-03T05:41:22;9.88;;;5.72;;
44197;SDS011;30157;55.512;37.764;2023-04-03T05:43:49;12.82;;;6.45;;
44197;SDS011;30157;55.512;37.764;2023-04-03T05:46:17;9.77;;;5.78;;
44197;SDS011;30157;55.512;37.764;2023-04-03T05:48:46;12.82;;;6.70;;
44197;SDS011;30157;55.512;37.764;2023-04-03T05:51:28;10.57;;;5.97;;
44197;SDS011;30157;55.512;37.764;2023-04-03T05:54:16;7.95;;;5.55;;
44197;SDS011;30157;55.512;37.764;2023-04-03T05:56:45;7.63;;;5.82;;
44197;SDS011;30157;55.512;37.764;2023-04-03T05:59:11;8.38;;;5.40;;
44197;SDS011;30157;55.512;37.764;2023-04-03T06:01:37;8.50;;;5.30;;
44197;SDS011;30157;55.512;37.764;2023-04-03T06:04:03;10.68;;;5.93;;
44197;SDS011;30157;55.512;37.764;2023-04-03T06:06:42;7.07;;;5.13;;
44197;SDS011;30157;55.512;37.764;2023-04-03T06:09:27;9.82;;;5.78;;
44197;SDS011;30157;55.512;37.764;2023-04-03T06:11:54;7.93;;;5.40;;
44197;SDS011;30157;55.512;37.764;2023-04-03T06:14:22;9.38;;;5.57;;
44197;SDS011;30157;55.512;37.764;2023-04-03T06:16:47;8.75;;;5.45;;
44197;SDS011;30157;55.512;37.764;2023-04-03T06:19:13;9.52;;;5.93;;
44197;SDS011;30157;55.512;37.764;2023-04-03T06:21:44;9.48;;;5.40;;
44197;SDS011;30157;55.512;37.764;2023-04-03T06:24:12;10.55;;;6.10;;
44197;SDS011;30157;55.512;37.764;2023-04-03T06:26:41;9.75;;;5.40;;
44197;SDS011;30157;55.512;37.764;2023-04-03T06:29:07;7.47;;;5.47;;
44197;SDS011;30157;55.512;37.764;2023-04-03T06:31:33;7.82;;;5.28;;
44197;SDS011;30157;55.512;37.764;2023-04-03T06:33:59;8.13;;;5.07;;
44197;SDS011;30157;55.512;37.764;2023-04-03T06:36:24;9.07;;;5.55;;
44197;SDS011;30157;55.512;37.764;2023-04-03T06:38:50;11.48;;;6.22;;
44197;SDS011;30157;55.512;37.764;2023-04-03T06:41:16;9.52;;;5.38;;
44197;SDS011;30157;55.512;37.764;2023-04-03T06:43:43;9.15;;;5.57;;
44197;SDS011;30157;55.512;37.764;2023-04-03T06:46:12;10.18;;;5.90;;
44197;SDS011;30157;55.512;37.764;2023-04-03T06:48:40;11.80;;;6.55;;
44197;SDS011;30157;55.512;37.764;2023-04-03T06:51:06;10.60;;;5.97;;
44197;SDS011;30157;55.512;37.764;2023-04-03T06:53:43;10.50;;;6.03;;
44197;SDS011;30157;55.512;37.764;2023-04-03T06:56:11;9.57;;;6.07;;
44197;SDS011;30157;55.512;37.764;2023-04-03T06:58:36;9.73;;;6.43;;
44197;SDS011;30157;55.512;37.764;2023-04-03T07:01:02;10.88;;;6.53;;
44197;SDS011;30157;55.512;37.764;2023-04-03T07:03:28;11.68;;;7.05;;
44197;SDS011;30157;55.512;37.764;2023-04-03T07:05:54;10.27;;;5.90;;
44197;SDS011;30157;55.512;37.764;2023-04-03T07:08:20;10.63;;;6.78;;
44197;SDS011;30157;55.512;37.764;2023-04-03T07:10:48;10.63;;;6.18;;
44197;SDS011;30157;55.512;37.764;2023-04-03T07:13:14;10.55;;;7.00;;
44197;SDS011;30157;55.512;37.764;2023-04-03T07:15:39;11.15;;;7.07;;
44197;SDS011;30157;55.512;37.764;2023-04-03T07:18:05;9.55;;;6.70;;
44197;SDS011;30157;55.512;37.764;2023-04-03T07:20:31;11.90;;;6.82;;
44197;SDS011;30157;55.512;37.764;2023-04-03T07:22:56;11.43;;;7.32;;
44197;SDS011;30157;55.512;37.764;2023-04-03T07:25:22;12.55;;;7.57;;
44197;SDS011;30157;55.512;37.764;2023-04-03T07:27:48;10.20;;;6.88;;
44197;SDS011;30157;55.512;37.764;2023-04-03T07:30:14;11.43;;;6.82;;
44197;SDS011;30157;55.512;37.764;2023-04-03T07:32:40;9.90;;;6.72;;
44197;SDS011;30157;55.512;37.764;2023-04-03T07:35:06;11.55;;;7.55;;
44197;SDS011;30157;55.512;37.764;2023-04-03T07:37:32;10.38;;;6.90;;
44197;SDS011;30157;55.512;37.764;2023-04-03T07:40:00;13.63;;;7.85;;
44197;SDS011;30157;55.512;37.764;2023-04-03T07:42:29;11.93;;;6.85;;
44197;SDS011;30157;55.512;37.764;2023-04-03T07:44:54;14.82;;;7.93;;
44197;SDS011;30157;55.512;37.764;2023-04-03T07:47:22;12.82;;;7.70;;
44197;SDS011;30157;55.512;37.764;2023-04-03T07:49:48;12.65;;;7.85;;
44197;SDS011;30157;55.512;37.764;2023-04-03T07:52:14;14.35;;;8.70;;
44197;SDS011;30157;55.512;37.764;2023-04-03T07:54:40;11.48;;;7.65;;
44197;SDS011;30157;55.512;37.764;2023-04-03T07:57:07;12.57;;;7.47;;
44197;SDS011;30157;55.512;37.764;2023-04-03T07:59:33;17.02;;;8.98;;
44197;SDS011;30157;55.512;37.764;2023-04-03T08:01:59;14.98;;;7.72;;
44197;SDS011;30157;55.512;37.764;2023-04-03T08:04:24;12.82;;;8.00;;
44197;SDS011;30157;55.512;37.764;2023-04-03T08:06:51;12.55;;;8.07;;
44197;SDS011;30157;55.512;37.764;2023-04-03T08:09:17;17.15;;;8.88;;
44197;SDS011;30157;55.512;37.764;2023-04-03T08:11:44;12.95;;;8.25;;
44197;SDS011;30157;55.512;37.764;2023-04-03T08:14:10;18.55;;;9.48;;
44197;SDS011;30157;55.512;37.764;2023-04-03T08:16:42;15.23;;;9.10;;
44197;SDS011;30157;55.512;37.764;2023-04-03T08:19:09;13.35;;;9.40;;
44197;SDS011;30157;55.512;37.764;2023-04-03T08:21:36;13.82;;;9.23;;
44197;SDS011;30157;55.512;37.764;2023-04-03T08:24:01;12.30;;;8.90;;
44197;SDS011;30157;55.512;37.764;2023-04-03T08:26:28;15.93;;;8.85;;
44197;SDS011;30157;55.512;37.764;2023-04-03T08:28:54;13.75;;;8.50;;
44197;SDS011;30157;55.512;37.764;2023-04-03T08:31:20;16.83;;;8.52;;
44197;SDS011;30157;55.512;37.764;2023-04-03T08:33:46;16.02;;;9.82;;
44197;SDS011;30157;55.512;37.764;2023-04-03T08:36:22;16.35;;;10.18;;
44197;SDS011;30157;55.512;37.764;2023-04-03T08:38:52;12.85;;;9.15;;
44197;SDS011;30157;55.512;37.764;2023-04-03T08:41:21;19.63;;;9.73;;
44197;SDS011;30157;55.512;37.764;2023-04-03T08:46:31;16.02;;;8.90;;
44197;SDS011;30157;55.512;37.764;2023-04-03T08:49:07;14.50;;;9.13;;
44197;SDS011;30157;55.512;37.764;2023-04-03T08:51:48;13.95;;;7.97;;
44197;SDS011;30157;55.512;37.764;2023-04-03T08:54:30;12.13;;;8.25;;
44197;SDS011;30157;55.512;37.764;2023-04-03T08:56:59;14.43;;;8.80;;
44197;SDS011;30157;55.512;37.764;2023-04-03T08:59:37;12.10;;;8.38;;
44197;SDS011;30157;55.512;37.764;2023-04-03T09:02:13;11.15;;;7.93;;
44197;SDS011;30157;55.512;37.764;2023-04-03T09:04:48;13.10;;;8.02;;
44197;SDS011;30157;55.512;37.764;2023-04-03T09:07:16;13.27;;;8.27;;
44197;SDS011;30157;55.512;37.764;2023-04-03T09:09:48;13.80;;;8.43;;
44197;SDS011;30157;55.512;37.764;2023-04-03T09:23:25;12.15;;;7.65;;
44197;SDS011;30157;55.512;37.764;2023-04-03T09:25:53;13.45;;;7.63;;
44197;SDS011;30157;55.512;37.764;2023-04-03T09:28:26;16.02;;;9.50;;
44197;SDS011;30157;55.512;37.764;2023-04-03T09:30:53;15.02;;;8.65;;
44197;SDS011;30157;55.512;37.764;2023-04-03T09:33:18;12.57;;;7.13;;
44197;SDS011;30157;55.512;37.764;2023-04-03T09:35:46;13.15;;;7.70;;
44197;SDS011;30157;55.512;37.764;2023-04-03T09:40:48;10.63;;;7.35;;
44197;SDS011;30157;55.512;37.764;2023-04-03T09:45:42;11.57;;;7.50;;
44197;SDS011;30157;55.512;37.764;2023-04-03T09:48:15;11.60;;;7.70;;
44197;SDS011;30157;55.512;37.764;2023-04-03T09:51:01;11.55;;;7.45;;
44197;SDS011;30157;55.512;37.764;2023-04-03T09:53:33;12.15;;;6.53;;
44197;SDS011;30157;55.512;37.764;2023-04-03T09:56:03;9.93;;;6.82;;
44197;SDS011;30157;55.512;37.764;2023-04-03T09:58:51;17.05;;;9.30;;
44197;SDS011;30157;55.512;37.764;2023-04-03T10:01:33;12.80;;;9.10;;
44197;SDS011;30157;55.512;37.764;2023-04-03T10:04:08;11.07;;;6.72;;
44197;SDS011;30157;55.512;37.764;2023-04-03T10:06:40;11.93;;;7.28;;
44197;SDS011;30157;55.512;37.764;2023-04-03T10:09:19;11.38;;;7.25;;
44197;SDS011;30157;55.512;37.764;2023-04-03T10:12:11;10.90;;;6.88;;
44197;SDS011;30157;55.512;37.764;2023-04-03T10:14:54;11.52;;;7.03;;
44197;SDS011;30157;55.512;37.764;2023-04-03T10:38:05;11.50;;;6.93;;
44197;SDS011;30157;55.512;37.764;2023-04-03T10:40:34;12.88;;;7.10;;
44197;SDS011;30157;55.512;37.764;2023-04-03T10:43:25;10.13;;;6.93;;
44197;SDS011;30157;55.512;37.764;2023-04-03T10:51:43;8.98;;;5.57;;
44197;SDS011;30157;55.512;37.764;2023-04-03T10:54:24;11.77;;;6.95;;
44197;SDS011;30157;55.512;37.764;2023-04-03T10:56:56;9.45;;;6.72;;
44197;SDS011;30157;55.512;37.764;2023-04-03T11:01:59;9.55;;;5.85;;
44197;SDS011;30157;55.512;37.764;2023-04-03T11:04:31;12.20;;;8.20;;
44197;SDS011;30157;55.512;37.764;2023-04-03T11:07:10;8.40;;;5.55;;
44197;SDS011;30157;55.512;37.764;2023-04-03T11:09:41;6.88;;;4.70;;
44197;SDS011;30157;55.512;37.764;2023-04-03T11:12:30;5.50;;;3.78;;
44197;SDS011;30157;55.512;37.764;2023-04-03T11:15:03;5.43;;;3.53;;
44197;SDS011;30157;55.512;37.764;2023-04-03T11:17:33;6.03;;;4.07;;
44197;SDS011;30157;55.512;37.764;2023-04-03T11:22:36;6.18;;;4.32;;
44197;SDS011;30157;55.512;37.764;2023-04-03T11:25:14;12.00;;;6.70;;
44197;SDS011;30157;55.512;37.764;2023-04-03T11:27:52;6.65;;;4.65;;
44197;SDS011;30157;55.512;37.764;2023-04-03T11:33:14;8.90;;;4.68;;
44197;SDS011;30157;55.512;37.764;2023-04-03T11:36:40;6.63;;;4.45;;
44197;SDS011;30157;55.512;37.764;2023-04-03T11:38:49;6.83;;;4.23;;
44197;SDS011;30157;55.512;37.764;2023-04-03T11:41:24;8.25;;;4.22;;
44197;SDS011;30157;55.512;37.764;2023-04-03T11:44:04;6.82;;;4.25;;
44197;SDS011;30157;55.512;37.764;2023-04-03T11:46:51;7.35;;;4.57;;
44197;SDS011;30157;55.512;37.764;2023-04-03T12:05:52;7.15;;;4.32;;
44197;SDS011;30157;55.512;37.764;2023-04-03T12:08:25;7.13;;;4.30;;
44197;SDS011;30157;55.512;37.764;2023-04-03T12:13:40;7.00;;;4.05;;
44197;SDS011;30157;55.512;37.764;2023-04-03T12:16:20;6.95;;;4.70;;
44197;SDS011;30157;55.512;37.764;2023-04-03T12:24:13;11.50;;;7.40;;
44197;SDS011;30157;55.512;37.764;2023-04-03T12:29:32;8.82;;;4.90;;
44197;SDS011;30157;55.512;37.764;2023-04-03T12:41:08;8.52;;;4.90;;
44197;SDS011;30157;55.512;37.764;2023-04-03T12:46:38;11.18;;;5.55;;
44197;SDS011;30157;55.512;37.764;2023-04-03T12:49:52;6.93;;;4.90;;
44197;SDS011;30157;55.512;37.764;2023-04-03T12:52:22;9.18;;;5.88;;
44197;SDS011;30157;55.512;37.764;2023-04-03T12:55:00;8.60;;;5.68;;
44197;SDS011;30157;55.512;37.764;2023-04-03T12:57:29;9.23;;;5.55;;
44197;SDS011;30157;55.512;37.764;2023-04-03T12:59:57;10.00;;;5.68;;
44197;SDS011;30157;55.512;37.764;2023-04-03T13:02:28;9.40;;;5.50;;
44197;SDS011;30157;55.512;37.764;2023-04-03T13:04:59;8.70;;;5.40;;
44197;SDS011;30157;55.512;37.764;2023-04-03T13:07:33;9.45;;;5.65;;
44197;SDS011;30157;55.512;37.764;2023-04-03T13:10:24;10.18;;;5.55;;
44197;SDS011;30157;55.512;37.764;2023-04-03T13:12:56;6.22;;;4.68;;
44197;SDS011;30157;55.512;37.764;2023-04-03T13:17:51;9.30;;;5.65;;
44197;SDS011;30157;55.512;37.764;2023-04-03T13:20:28;9.02;;;5.60;;
44197;SDS011;30157;55.512;37.764;2023-04-03T13:22:59;10.23;;;6.45;;
44197;SDS011;30157;55.512;37.764;2023-04-03T13:25:30;9.65;;;4.78;;
44197;SDS011;30157;55.512;37.764;2023-04-03T13:27:59;10.27;;;5.30;;
44197;SDS011;30157;55.512;37.764;2023-04-03T13:30:31;8.98;;;4.97;;
44197;SDS011;30157;55.512;37.764;2023-04-03T13:33:00;6.65;;;4.35;;
44197;SDS011;30157;55.512;37.764;2023-04-03T13:35:29;8.05;;;5.05;;
44197;SDS011;30157;55.512;37.764;2023-04-03T13:38:04;8.35;;;4.93;;
44197;SDS011;30157;55.512;37.764;2023-04-03T13:40:48;8.38;;;4.57;;
44197;SDS011;30157;55.512;37.764;2023-04-03T13:43:23;7.85;;;4.72;;
44197;SDS011;30157;55.512;37.764;2023-04-03T13:48:35;9.35;;;5.22;;
44197;SDS011;30157;55.512;37.764;2023-04-03T13:51:04;9.02;;;5.40;;
44197;SDS011;30157;55.512;37.764;2023-04-03T13:53:33;7.68;;;5.00;;
44197;SDS011;30157;55.512;37.764;2023-04-03T13:56:08;7.43;;;4.78;;
44197;SDS011;30157;55.512;37.764;2023-04-03T13:58:51;8.55;;;4.78;;
44197;SDS011;30157;55.512;37.764;2023-04-03T14:01:22;7.57;;;4.80;;
44197;SDS011;30157;55.512;37.764;2023-04-03T14:03:53;12.93;;;5.57;;
44197;SDS011;30157;55.512;37.764;2023-04-03T14:06:21;9.98;;;5.53;;
44197;SDS011;30157;55.512;37.764;2023-04-03T14:08:49;10.65;;;5.15;;
44197;SDS011;30157;55.512;37.764;2023-04-03T14:11:21;9.88;;;5.53;;
44197;SDS011;30157;55.512;37.764;2023-04-03T14:13:52;13.73;;;5.53;;
44197;SDS011;30157;55.512;37.764;2023-04-03T14:16:19;9.35;;;5.32;;
44197;SDS011;30157;55.512;37.764;2023-04-03T14:18:49;12.52;;;6.25;;
44197;SDS011;30157;55.512;37.764;2023-04-03T14:21:17;11.88;;;5.88;;
44197;SDS011;30157;55.512;37.764;2023-04-03T14:23:44;9.32;;;5.10;;
44197;SDS011;30157;55.512;37.764;2023-04-03T14:26:14;8.13;;;5.28;;
44197;SDS011;30157;55.512;37.764;2023-04-03T14:28:43;11.93;;;5.57;;
44197;SDS011;30157;55.512;37.764;2023-04-03T14:31:10;9.45;;;4.80;;
44197;SDS011;30157;55.512;37.764;2023-04-03T14:33:37;9.02;;;5.38;;
44197;SDS011;30157;55.512;37.764;2023-04-03T14:36:11;8.80;;;5.05;;
44197;SDS011;30157;55.512;37.764;2023-04-03T14:38:42;11.05;;;5.00;;
44197;SDS011;30157;55.512;37.764;2023-04-03T14:41:10;9.05;;;5.32;;
44197;SDS011;30157;55.512;37.764;2023-04-03T14:43:37;8.10;;;4.65;;
44197;SDS011;30157;55.512;37.764;2023-04-03T14:46:04;8.52;;;4.40;;
44197;SDS011;30157;55.512;37.764;2023-04-03T14:48:33;7.22;;;4.70;;
44197;SDS011;30157;55.512;37.764;2023-04-03T14:50:59;6.80;;;4.28;;
44197;SDS011;30157;55.512;37.764;2023-04-03T14:53:24;9.35;;;5.95;;
44197;SDS011;30157;55.512;37.764;2023-04-03T14:55:51;8.90;;;5.50;;
44197;SDS011;30157;55.512;37.764;2023-04-03T14:58:18;7.55;;;4.45;;
44197;SDS011;30157;55.512;37.764;2023-04-03T15:00:46;6.22;;;4.63;;
44197;SDS011;30157;55.512;37.764;2023-04-03T15:03:16;7.32;;;4.18;;
44197;SDS011;30157;55.512;37.764;2023-04-03T15:05:45;6.90;;;4.78;;
44197;SDS011;30157;55.512;37.764;2023-04-03T15:08:17;8.50;;;4.85;;
44197;SDS011;30157;55.512;37.764;2023-04-03T15:10:45;7.20;;;4.82;;
44197;SDS011;30157;55.512;37.764;2023-04-03T15:13:11;8.77;;;5.40;;
44197;SDS011;30157;55.512;37.764;2023-04-03T15:15:38;8.45;;;5.55;;
44197;SDS011;30157;55.512;37.764;2023-04-03T15:18:04;8.15;;;5.20;;
44197;SDS011;30157;55.512;37.764;2023-04-03T15:20:30;8.32;;;4.82;;
44197;SDS011;30157;55.512;37.764;2023-04-03T15:22:58;13.18;;;6.80;;
44197;SDS011;30157;55.512;37.764;2023-04-03T15:25:28;9.32;;;6.03;;
44197;SDS011;30157;55.512;37.764;2023-04-03T15:27:55;9.35;;;6.43;;
44197;SDS011;30157;55.512;37.764;2023-04-03T15:30:22;14.30;;;6.38;;
44197;SDS011;30157;55.512;37.764;2023-04-03T15:32:48;12.73;;;6.57;;
44197;SDS011;30157;55.512;37.764;2023-04-03T15:35:14;13.15;;;7.10;;
44197;SDS011;30157;55.512;37.764;2023-04-03T15:37:39;9.80;;;6.30;;
44197;SDS011;30157;55.512;37.764;2023-04-03T15:40:05;9.43;;;5.85;;
44197;SDS011;30157;55.512;37.764;2023-04-03T15:42:32;10.63;;;6.60;;
44197;SDS011;30157;55.512;37.764;2023-04-03T15:44:58;9.18;;;6.05;;
44197;SDS011;30157;55.512;37.764;2023-04-03T15:47:24;9.75;;;6.13;;
44197;SDS011;30157;55.512;37.764;2023-04-03T15:49:52;19.88;;;10.55;;
44197;SDS011;30157;55.512;37.764;2023-04-03T15:52:19;11.57;;;6.80;;
44197;SDS011;30157;55.512;37.764;2023-04-03T15:54:45;9.75;;;5.28;;
44197;SDS011;30157;55.512;37.764;2023-04-03T15:57:11;7.70;;;5.70;;
44197;SDS011;30157;55.512;37.764;2023-04-03T15:59:36;10.73;;;6.13;;
44197;SDS011;30157;55.512;37.764;2023-04-03T16:02:04;10.77;;;6.07;;
44197;SDS011;30157;55.512;37.764;2023-04-03T16:04:32;11.15;;;6.28;;
44197;SDS011;30157;55.512;37.764;2023-04-03T16:07:02;9.88;;;6.25;;
44197;SDS011;30157;55.512;37.764;2023-04-03T16:09:29;12.23;;;5.95;;
44197;SDS011;30157;55.512;37.764;2023-04-03T16:11:55;9.68;;;6.25;;
44197;SDS011;30157;55.512;37.764;2023-04-03T16:14:21;12.32;;;7.47;;
44197;SDS011;30157;55.512;37.764;2023-04-03T16:16:47;14.18;;;7.53;;
44197;SDS011;30157;55.512;37.764;2023-04-03T16:19:13;12.95;;;7.47;;
44197;SDS011;30157;55.512;37.764;2023-04-03T16:21:38;14.10;;;7.18;;
44197;SDS011;30157;55.512;37.764;2023-04-03T16:24:04;11.95;;;7.38;;